Latest Weather Observations for Parndana

IDS60801

Issued at 5:35 pm CDT Saturday 1 November 2014 (issued every 30 minutes, with the page automatically refreshed every 10 minutes)

About weather observations | Map of weather stations | Latest weather observations for SA | Other Formats
Station Details ID: 022843 Name: PARNDANA CFS AWS Lat: -35.79 Lon: 137.25 Height: 165.0 m
Data from the previous 72 hours. | See also: Recent months at Parndana
Date/Time
CDT
Temp
°C
App
Temp
°C
Dew
Point
Rel
Hum
%
Delta-T
°C
Wind Press
QNH
hPa
Press
MSL
hPa
Rain
since 9 am
mm
Dir
 
Spd
km/h
Gust
km/h
Spd
kts
Gust
kts
01/05:30pm 13.2 6.6 4.1 54 4.2 SSW 28 39 15 21 - - 0.0
01/05:00pm 12.9 6.0 2.7 50 4.5 SSW 28 46 15 25 - - 0.0
01/04:59pm 13.4 6.6 2.9 49 4.7 SSW 28 46 15 25 - - 0.0
01/04:30pm 13.1 5.6 3.5 52 4.3 SSW 32 41 17 22 - - 0.0
01/04:00pm 14.6 7.0 3.1 46 5.2 SW 32 44 17 24 - - 0.0
01/03:30pm 14.0 7.5 4.6 53 4.4 SSW 28 43 15 23 - - 0.0
01/03:00pm 14.9 7.4 1.1 39 6.0 WSW 30 43 16 23 - - 0.0
01/02:40pm 16.0 9.1 2.8 41 6.0 SW 28 46 15 25 - - 0.0
01/02:30pm 14.2 6.3 1.2 41 5.6 SW 32 48 17 26 - - 0.0
01/02:00pm 15.5 9.0 4.6 48 5.1 SW 28 46 15 25 - - 0.0
01/01:59pm 15.2 8.7 4.6 49 5.0 SW 28 46 15 25 - - 0.0
01/01:30pm 13.5 6.4 3.6 51 4.5 SSW 30 46 16 25 - - 0.0
01/01:27pm 14.7 8.3 5.0 52 4.6 SSW 28 46 15 25 - - 0.0
01/01:00pm 15.3 9.0 5.8 53 4.6 SW 28 41 15 22 - - 0.0
01/12:30pm 15.3 7.2 3.5 45 5.4 SSW 35 50 19 27 - - 0.0
01/12:14pm 14.9 7.3 3.1 45 5.4 SW 32 52 17 28 - - 0.0
01/12:00pm 14.8 6.9 1.3 40 5.9 SW 32 50 17 27 - - 0.0
01/11:43am 14.1 6.3 3.0 47 5.0 SSW 33 54 18 29 - - 0.0
01/11:30am 13.6 5.5 3.1 49 4.7 SW 35 46 19 25 - - 0.0
01/11:00am 13.2 5.5 2.4 48 4.8 SW 32 50 17 27 - - 0.0
01/10:30am 12.1 3.7 1.7 49 4.5 SW 35 48 19 26 - - 0.0
01/10:14am 13.0 3.8 1.4 45 5.0 WSW 39 46 21 25 - - 0.0
01/10:09am 13.7 5.2 2.9 48 4.8 SSW 37 46 20 25 - - 0.0
01/10:01am 13.4 5.8 4.0 53 4.3 SW 33 54 18 29 - - 0.0
01/10:00am 12.7 4.5 2.8 51 4.4 SW 35 54 19 29 - - 0.0
01/09:30am 12.4 4.9 4.6 59 3.6 SW 33 52 18 28 - - 0.0
01/09:27am 11.9 4.3 3.7 57 3.7 SW 33 52 18 28 - - 0.0
01/09:00am 11.4 3.9 4.4 62 3.2 SW 33 48 18 26 - - 2.6
01/08:41am 10.8 4.4 5.3 69 2.5 SW 28 50 15 27 - - 2.6
01/08:30am 11.0 4.3 5.5 69 2.6 SW 30 41 16 22 - - 2.6
01/08:00am 10.9 5.0 5.9 71 2.3 SW 26 37 14 20 - - 2.6
01/07:30am 9.8 4.1 6.5 80 1.6 SW 26 33 14 18 - - 2.6
01/07:00am 9.7 4.1 5.5 75 1.9 SW 24 35 13 19 - - 2.6
01/06:43am 10.0 3.7 5.6 74 2.0 SW 28 46 15 25 - - 2.6
01/06:30am 10.1 4.2 5.7 74 2.0 SW 26 35 14 19 - - 2.6
01/06:00am 10.3 4.1 6.1 75 2.0 SW 28 41 15 22 - - 2.4
01/05:30am 10.3 5.4 7.0 80 1.6 SW 22 32 12 17 - - 2.4
01/05:00am 10.0 5.6 7.6 85 1.2 WSW 20 30 11 16 - - 2.4
01/04:30am 9.7 5.7 6.8 82 1.4 WSW 17 20 9 11 - - 2.4
01/04:00am 9.7 5.4 6.8 82 1.4 WSW 19 26 10 14 - - 2.4
01/03:30am 9.6 5.4 7.4 86 1.1 SW 19 28 10 15 - - 2.4
01/03:00am 9.2 5.2 6.8 85 1.1 SW 17 22 9 12 - - 2.4
01/02:30am 9.5 4.9 6.6 82 1.4 SW 20 28 11 15 - - 2.4
01/02:00am 10.1 5.0 7.7 85 1.2 SW 24 35 13 19 - - 2.4
01/01:30am 10.8 4.9 9.2 90 0.8 SW 30 43 16 23 - - 2.4
01/01:19am 11.0 5.7 9.9 93 0.6 SW 28 56 15 30 - - 2.4
01/01:00am 11.4 7.1 10.6 95 0.4 SW 24 35 13 19 - - 2.4
01/12:30am 11.9 7.7 11.1 95 0.4 SW 24 39 13 21 - - 2.2
01/12:00am 12.0 8.6 11.1 94 0.5 WSW 20 33 11 18 - - 2.0
 
Date/Time
CDT
Temp
°C
App
Temp
°C
Dew
Point
Rel
Hum
%
Delta-T
°C
Wind Press
QNH
hPa
Press
MSL
hPa
Rain
since 9 am
mm
Dir
 
Spd
km/h
Gust
km/h
Spd
kts
Gust
kts
31/11:30pm 12.1 10.4 11.2 94 0.5 WNW 11 15 6 8 - - 2.0
31/11:00pm 11.9 10.5 11.0 94 0.5 NW 9 13 5 7 - - 2.0
31/10:30pm 11.7 9.9 10.9 95 0.4 WNW 11 17 6 9 - - 2.0
31/10:00pm 11.7 10.3 10.9 95 0.4 W 9 13 5 7 - - 2.0
31/09:30pm 12.0 10.3 11.1 94 0.5 WNW 11 13 6 7 - - 2.0
31/09:00pm 12.1 10.8 11.3 95 0.4 W 9 13 5 7 - - 2.0
31/08:30pm 12.2 10.1 11.3 94 0.5 SSW 13 17 7 9 - - 1.8
31/08:00pm 12.2 9.9 10.6 90 0.8 SSW 13 22 7 12 - - 1.6
31/07:30pm 13.4 10.0 11.3 87 1.1 SW 20 32 11 17 - - 0.4
31/07:00pm 15.0 10.9 11.4 79 1.9 SW 24 32 13 17 - - 0.0
31/06:30pm 15.1 10.7 11.7 80 1.8 SW 26 35 14 19 - - 0.0
31/06:00pm 16.2 11.1 12.0 76 2.3 SW 30 43 16 23 - - 0.0
31/05:30pm 16.8 10.7 11.9 73 2.7 SW 35 46 19 25 - - 0.0
31/05:00pm 18.1 12.9 12.8 71 3.0 WSW 32 43 17 23 - - 0.0
31/04:30pm 22.2 18.6 10.7 48 6.4 SW 20 26 11 14 - - 0.0
31/04:00pm 26.7 22.1 8.2 31 10.1 WSW 22 33 12 18 - - 0.0
31/03:30pm 26.3 21.8 10.0 36 9.1 W 24 32 13 17 - - 0.0
31/03:00pm 26.2 22.4 12.3 42 8.1 W 24 32 13 17 - - 0.0
31/02:30pm 26.6 22.8 11.1 38 8.8 W 22 30 12 16 - - 0.0
31/02:00pm 25.8 22.3 10.8 39 8.5 W 20 28 11 15 - - 0.0
31/01:30pm 26.2 22.8 9.1 34 9.4 W 17 22 9 12 - - 0.0
31/01:00pm 25.4 22.6 7.1 31 9.7 NW 11 15 6 8 - - 0.0
31/12:30pm 25.0 20.9 6.2 30 9.8 NW 17 22 9 12 - - 0.0
31/12:00pm 25.5 20.0 4.0 25 10.8 NW 22 30 12 16 - - 0.0
31/11:30am 26.8 20.3 4.6 24 11.3 NW 28 37 15 20 - - 0.0
31/11:27am 27.4 21.1 5.6 25 11.4 NW 28 48 15 26 - - 0.0
31/11:00am 27.1 21.8 4.8 24 11.4 NW 22 33 12 18 - - 0.0
31/10:30am 26.3 22.0 5.3 26 10.8 N 17 22 9 12 - - 0.0
31/10:00am 25.3 20.3 4.4 26 10.5 N 20 30 11 16 - - 0.0
31/09:30am 24.6 19.8 4.4 27 10.1 N 19 28 10 15 - - 0.0
31/09:00am 22.9 19.6 8.2 39 7.8 N 15 20 8 11 - - 0.0
31/08:30am 21.3 17.8 8.6 44 6.7 N 17 22 9 12 - - 0.0
31/08:00am 19.9 16.2 9.5 51 5.6 N 19 24 10 13 - - 0.0
31/07:30am 17.4 13.9 8.8 57 4.5 N 17 24 9 13 - - 0.0
31/07:00am 18.4 14.2 7.5 49 5.6 N 19 24 10 13 - - 0.0
31/06:30am 18.3 14.1 8.3 52 5.2 N 20 26 11 14 - - 0.0
31/06:00am 15.7 13.9 9.6 67 3.2 N 9 19 5 10 - - 0.0
31/05:30am 14.8 12.7 9.8 72 2.6 N 11 13 6 7 - - 0.0
31/05:00am 15.1 13.0 9.7 70 2.8 N 11 13 6 7 - - 0.0
31/04:30am 16.6 13.2 9.3 62 3.8 NNE 17 24 9 13 - - 0.0
31/04:00am 16.2 13.0 8.4 60 4.0 NNE 15 22 8 12 - - 0.0
31/03:30am 16.2 12.2 8.9 62 3.8 NNE 20 30 11 16 - - 0.0
31/03:00am 14.8 12.7 9.8 72 2.6 NNE 11 19 6 10 - - 0.0
31/02:30am 13.9 11.5 9.9 77 2.1 NNE 13 15 7 8 - - 0.0
31/02:00am 13.3 11.6 9.9 80 1.8 NE 9 15 5 8 - - 0.0
31/01:30am 13.4 11.5 10.4 82 1.6 NNE 11 11 6 6 - - 0.0
31/01:00am 13.8 11.9 10.6 81 1.7 NNE 11 11 6 6 - - 0.0
31/12:30am 13.5 11.2 10.5 82 1.6 NNE 13 13 7 7 - - 0.0
31/12:00am 13.2 11.5 10.0 81 1.7 NNE 9 11 5 6 - - 0.0
 
Date/Time
CDT
Temp
°C
App
Temp
°C
Dew
Point
Rel
Hum
%
Delta-T
°C
Wind Press
QNH
hPa
Press
MSL
hPa
Rain
since 9 am
mm
Dir
 
Spd
km/h
Gust
km/h
Spd
kts
Gust
kts
30/11:30pm 13.1 12.0 10.8 86 1.2 NE 7 7 4 4 - - 0.0
30/11:00pm 13.3 13.7 11.2 87 1.1 CALM 0 0 0 0 - - 0.0
30/10:30pm 13.6 12.3 11.1 85 1.3 NNE 9 9 5 5 - - 0.0
30/10:00pm 13.4 12.0 10.9 85 1.3 NNE 9 11 5 6 - - 0.0
30/09:30pm 13.6 12.4 10.2 80 1.8 NE 7 9 4 5 - - 0.0
30/09:00pm 15.0 14.3 10.2 73 2.5 ENE 4 6 2 3 - - 0.0
30/08:30pm 15.1 14.8 11.3 78 2.0 SE 4 4 2 2 - - 0.0
30/08:00pm 16.5 16.9 11.4 72 2.8 CALM 0 0 0 0 - - 0.0
30/07:30pm 17.1 16.4 11.4 69 3.1 S 6 7 3 4 - - 0.0
30/07:00pm 20.2 19.5 11.4 57 4.9 NW 6 7 3 4 - - 0.0
30/06:30pm 22.1 21.0 9.9 46 6.7 NNE 6 9 3 5 - - 0.0
30/06:00pm 23.3 22.6 11.4 47 6.7 NNW 6 9 3 5 - - 0.0
30/05:30pm 22.8 21.7 10.6 46 6.8 N 7 9 4 5 - - 0.0
30/05:00pm 22.2 20.8 11.0 49 6.2 E 9 17 5 9 - - 0.0
30/04:30pm 22.6 20.8 10.7 47 6.6 SE 11 19 6 10 - - 0.0
30/04:00pm 22.3 20.0 10.5 47 6.5 SSW 13 28 7 15 - - 0.0
30/03:30pm 22.7 21.7 10.2 45 6.9 S 6 9 3 5 - - 0.0
30/03:00pm 22.6 20.0 9.4 43 7.2 N 13 20 7 11 - - 0.0
30/02:30pm 22.7 21.0 6.0 34 8.5 N 4 9 2 5 - - 0.0
30/02:00pm 22.8 21.2 8.1 39 7.8 ESE 6 17 3 9 - - 0.0
30/01:30pm 21.8 20.4 9.0 44 6.9 WNW 6 11 3 6 - - 0.0
30/01:00pm 20.4 18.8 8.1 45 6.4 SSW 6 9 3 5 - - 0.0
30/12:30pm 19.3 17.9 7.1 45 6.2 SE 4 7 2 4 - - 0.0
30/12:00pm 18.6 17.4 8.0 50 5.5 SE 4 7 2 4 - - 0.0
30/11:30am 17.7 16.6 8.3 54 4.9 W 4 7 2 4 - - 0.0
30/11:00am 17.5 16.5 8.9 57 4.5 NW 4 11 2 6 - - 0.0
30/10:30am 16.5 15.5 9.0 61 3.9 ENE 4 7 2 4 - - 0.0
30/10:00am 15.2 14.0 8.0 62 3.6 ENE 4 9 2 5 - - 0.0
30/09:30am 14.3 13.1 8.0 66 3.2 NW 4 7 2 4 - - 0.0
30/09:00am 13.2 12.4 8.3 72 2.5 W 2 4 1 2 - - 0.2
30/08:30am 11.4 10.8 8.8 84 1.3 NNW 2 4 1 2 - - 0.2
30/08:00am 9.7 9.1 9.1 96 0.3 NW 2 4 1 2 - - 0.2
30/07:30am 7.5 5.5 7.1 97 0.2 N 7 7 4 4 - - 0.2
30/07:00am 5.7 4.6 5.3 97 0.2 CALM 0 0 0 0 - - 0.2
30/06:30am 5.1 3.1 4.5 96 0.3 W 4 6 2 3 - - 0.2
30/06:00am 5.8 3.5 5.5 98 0.1 W 7 9 4 5 - - 0.0
30/05:30am 5.8 3.4 5.4 97 0.2 W 7 9 4 5 - - 0.0
30/05:00am 5.4 3.1 5.0 97 0.2 WSW 6 7 3 4 - - 0.0
30/04:30am 5.2 2.3 4.6 96 0.3 N 9 11 5 6 - - 0.0
30/04:00am 6.8 4.6 6.4 97 0.2 W 7 9 4 5 - - 0.0
30/03:30am 6.6 4.0 6.2 97 0.2 WSW 9 11 5 6 - - 0.0
30/03:00am 6.6 4.0 6.2 97 0.2 WSW 9 11 5 6 - - 0.0
30/02:30am 6.2 3.2 5.9 98 0.1 WSW 11 13 6 7 - - 0.0
30/02:00am 6.1 3.4 5.7 97 0.2 W 9 9 5 5 - - 0.0
30/01:30am 7.0 5.4 6.4 96 0.3 W 4 6 2 3 - - 0.0
30/01:00am 8.1 6.8 7.5 96 0.3 NW 4 4 2 2 - - 0.0
30/12:30am 9.4 9.1 8.8 96 0.3 CALM 0 0 0 0 - - 0.0
30/12:00am 9.7 8.7 8.9 95 0.4 W 4 7 2 4 - - 0.0
 
Date/Time
CDT
Temp
°C
App
Temp
°C
Dew
Point
Rel
Hum
%
Delta-T
°C
Wind Press
QNH
hPa
Press
MSL
hPa
Rain
since 9 am
mm
Dir
 
Spd
km/h
Gust
km/h
Spd
kts
Gust
kts
29/11:30pm 9.5 8.1 8.9 96 0.3 W 6 7 3 4 - - 0.0
29/11:00pm 9.8 8.3 9.0 95 0.4 SSW 7 9 4 5 - - 0.0
29/10:30pm 9.9 8.4 9.0 94 0.4 SSW 7 11 4 6 - - 0.0
29/10:00pm 9.3 7.2 8.2 93 0.5 SW 9 11 5 6 - - 0.0
29/09:30pm 9.7 7.7 8.5 92 0.6 SSW 9 11 5 6 - - 0.0
29/09:00pm 11.5 10.4 10.1 91 0.7 S 6 6 3 3 - - 0.0
29/08:30pm 11.2 9.7 9.3 88 1.0 S 7 9 4 5 - - 0.0
29/08:00pm 12.5 10.8 10.0 85 1.3 SSW 9 13 5 7 - - 0.0
29/07:30pm 13.9 12.0 9.1 73 2.5 SW 9 13 5 7 - - 0.0
29/07:00pm 14.5 11.6 9.5 72 2.6 SW 15 20 8 11 - - 0.0
29/06:30pm 15.4 12.0 9.3 67 3.2 WSW 17 24 9 13 - - 0.0
29/06:00pm 16.4 13.6 10.0 66 3.4 SW 15 20 8 11 - - 0.0

Other Formats:

Comma delimited format used in spreadsheet applications
http://www.bom.gov.au/fwo/IDS60801/IDS60801.94807.axf

JavaScript Object Notation format (JSON) in row-major order
http://www.bom.gov.au/fwo/IDS60801/IDS60801.94807.json